Proctor, Texas
Current Conditions -  °F | °C
As of 12:35 AM on Wednesday 28 Jan 2015 (Local Time) from KMKN Reporting Station
Clear Clear  
Wind Chill: 52°   Ceiling: Unl
Heat Index: 52°   Visibility: 10mi
Dew Point: 42°   Wind: 7mph
Humidity: 68%   Direction: 200°SSW
Pressure: 30.14"   Gusts: NA
Location:  31.99°N, 98.43°W
Report Text: KMKN 280635Z AUTO 20006KT 10SM CLR 11/05 A3014 RMK AO2 T01110053
Loading
Personal Weather Stations






























Interactive Weather Map New forecast layout! Learn more

10-Day Weather Forecast

Advertisements
Track Severe Weather on mobile